sensor_id;sensor_type;location;lat;lon;timestamp;P1;durP1;ratioP1;P2;durP2;ratioP2
42092;SDS011;28974;50.316;18.960;2022-12-19T00:02:27;138.65;;;40.50;;
42092;SDS011;28974;50.316;18.960;2022-12-19T00:14:27;146.05;;;44.38;;
42092;SDS011;28974;50.316;18.960;2022-12-19T00:26:29;119.47;;;38.55;;
42092;SDS011;28974;50.316;18.960;2022-12-19T00:38:30;114.53;;;39.35;;
42092;SDS011;28974;50.316;18.960;2022-12-19T00:50:30;139.65;;;40.33;;
42092;SDS011;28974;50.316;18.960;2022-12-19T01:02:31;138.10;;;44.97;;
42092;SDS011;28974;50.316;18.960;2022-12-19T01:14:31;157.13;;;44.30;;
42092;SDS011;28974;50.316;18.960;2022-12-19T01:26:31;124.35;;;41.15;;
42092;SDS011;28974;50.316;18.960;2022-12-19T01:38:32;123.10;;;40.85;;
42092;SDS011;28974;50.316;18.960;2022-12-19T01:50:44;127.97;;;41.05;;
42092;SDS011;28974;50.316;18.960;2022-12-19T02:02:47;126.38;;;37.85;;
42092;SDS011;28974;50.316;18.960;2022-12-19T02:14:51;133.13;;;37.33;;
42092;SDS011;28974;50.316;18.960;2022-12-19T02:39:24;110.93;;;35.60;;
42092;SDS011;28974;50.316;18.960;2022-12-19T02:51:26;110.25;;;31.42;;
42092;SDS011;28974;50.316;18.960;2022-12-19T03:15:42;97.53;;;32.08;;
42092;SDS011;28974;50.316;18.960;2022-12-19T03:27:43;106.05;;;34.47;;
42092;SDS011;28974;50.316;18.960;2022-12-19T03:39:45;106.05;;;31.35;;
42092;SDS011;28974;50.316;18.960;2022-12-19T03:51:52;103.10;;;33.25;;
42092;SDS011;28974;50.316;18.960;2022-12-19T04:03:54;100.43;;;31.20;;
42092;SDS011;28974;50.316;18.960;2022-12-19T04:15:59;115.97;;;36.08;;
42092;SDS011;28974;50.316;18.960;2022-12-19T04:28:04;120.20;;;38.63;;
42092;SDS011;28974;50.316;18.960;2022-12-19T04:40:05;113.70;;;36.65;;
42092;SDS011;28974;50.316;18.960;2022-12-19T04:52:07;126.97;;;38.38;;
42092;SDS011;28974;50.316;18.960;2022-12-19T05:04:07;115.03;;;34.15;;
42092;SDS011;28974;50.316;18.960;2022-12-19T05:16:09;124.13;;;35.08;;
42092;SDS011;28974;50.316;18.960;2022-12-19T05:28:10;108.68;;;31.35;;
42092;SDS011;28974;50.316;18.960;2022-12-19T05:40:10;118.80;;;37.20;;
42092;SDS011;28974;50.316;18.960;2022-12-19T05:52:11;118.30;;;38.33;;
42092;SDS011;28974;50.316;18.960;2022-12-19T06:04:11;128.98;;;39.17;;
42092;SDS011;28974;50.316;18.960;2022-12-19T06:16:12;112.47;;;37.38;;
42092;SDS011;28974;50.316;18.960;2022-12-19T06:28:13;157.85;;;43.58;;
42092;SDS011;28974;50.316;18.960;2022-12-19T06:40:13;152.43;;;47.63;;
42092;SDS011;28974;50.316;18.960;2022-12-19T06:52:33;157.02;;;45.13;;
42092;SDS011;28974;50.316;18.960;2022-12-19T07:04:47;151.82;;;41.83;;
42092;SDS011;28974;50.316;18.960;2022-12-19T07:16:49;133.05;;;43.78;;
42092;SDS011;28974;50.316;18.960;2022-12-19T07:28:50;165.82;;;51.63;;
42092;SDS011;28974;50.316;18.960;2022-12-19T07:40:52;145.00;;;46.33;;
42092;SDS011;28974;50.316;18.960;2022-12-19T07:52:52;171.45;;;52.60;;
42092;SDS011;28974;50.316;18.960;2022-12-19T08:04:52;144.32;;;50.75;;
42092;SDS011;28974;50.316;18.960;2022-12-19T08:16:52;161.38;;;52.92;;
42092;SDS011;28974;50.316;18.960;2022-12-19T08:28:53;197.25;;;64.35;;
42092;SDS011;28974;50.316;18.960;2022-12-19T08:40:54;192.60;;;69.32;;
42092;SDS011;28974;50.316;18.960;2022-12-19T08:52:55;144.37;;;53.60;;
42092;SDS011;28974;50.316;18.960;2022-12-19T09:04:55;138.73;;;45.38;;
42092;SDS011;28974;50.316;18.960;2022-12-19T09:16:56;129.88;;;47.83;;
42092;SDS011;28974;50.316;18.960;2022-12-19T09:28:57;156.60;;;48.72;;
42092;SDS011;28974;50.316;18.960;2022-12-19T09:53:02;140.10;;;45.40;;
42092;SDS011;28974;50.316;18.960;2022-12-19T10:05:13;158.02;;;53.72;;
42092;SDS011;28974;50.316;18.960;2022-12-19T10:41:23;142.82;;;48.85;;
42092;SDS011;28974;50.316;18.960;2022-12-19T10:53:27;138.93;;;47.25;;
42092;SDS011;28974;50.316;18.960;2022-12-19T11:17:37;133.23;;;48.97;;
42092;SDS011;28974;50.316;18.960;2022-12-19T11:29:42;115.50;;;42.35;;
42092;SDS011;28974;50.316;18.960;2022-12-19T11:41:45;120.85;;;38.75;;
42092;SDS011;28974;50.316;18.960;2022-12-19T12:05:49;136.48;;;42.92;;
42092;SDS011;28974;50.316;18.960;2022-12-19T12:42:01;190.77;;;54.25;;
42092;SDS011;28974;50.316;18.960;2022-12-19T12:54:06;160.93;;;53.72;;
42092;SDS011;28974;50.316;18.960;2022-12-19T13:06:25;142.40;;;50.03;;
42092;SDS011;28974;50.316;18.960;2022-12-19T13:18:33;179.20;;;61.88;;
42092;SDS011;28974;50.316;18.960;2022-12-19T13:30:33;186.25;;;63.95;;
42092;SDS011;28974;50.316;18.960;2022-12-19T13:42:34;160.23;;;55.60;;
42092;SDS011;28974;50.316;18.960;2022-12-19T13:54:54;156.65;;;55.55;;
42092;SDS011;28974;50.316;18.960;2022-12-19T14:06:59;179.05;;;62.75;;
42092;SDS011;28974;50.316;18.960;2022-12-19T14:19:00;188.90;;;67.32;;
42092;SDS011;28974;50.316;18.960;2022-12-19T14:31:01;236.55;;;74.75;;
42092;SDS011;28974;50.316;18.960;2022-12-19T14:43:13;252.90;;;83.43;;
42092;SDS011;28974;50.316;18.960;2022-12-19T14:55:59;212.80;;;76.53;;
42092;SDS011;28974;50.316;18.960;2022-12-19T15:08:00;229.40;;;82.07;;
42092;SDS011;28974;50.316;18.960;2022-12-19T15:20:02;154.35;;;54.55;;
42092;SDS011;28974;50.316;18.960;2022-12-19T15:32:02;170.13;;;58.58;;
42092;SDS011;28974;50.316;18.960;2022-12-19T15:44:07;265.00;;;86.97;;
42092;SDS011;28974;50.316;18.960;2022-12-19T15:56:19;225.98;;;84.93;;
42092;SDS011;28974;50.316;18.960;2022-12-19T16:08:22;227.38;;;78.28;;
42092;SDS011;28974;50.316;18.960;2022-12-19T16:20:31;260.02;;;88.30;;
42092;SDS011;28974;50.316;18.960;2022-12-19T16:32:31;242.68;;;87.13;;
42092;SDS011;28974;50.316;18.960;2022-12-19T16:44:33;255.00;;;81.57;;
42092;SDS011;28974;50.316;18.960;2022-12-19T16:56:36;254.18;;;90.13;;
42092;SDS011;28974;50.316;18.960;2022-12-19T17:08:37;267.00;;;93.80;;
42092;SDS011;28974;50.316;18.960;2022-12-19T17:20:38;216.52;;;75.82;;
42092;SDS011;28974;50.316;18.960;2022-12-19T17:32:39;193.10;;;63.78;;
42092;SDS011;28974;50.316;18.960;2022-12-19T17:44:39;118.65;;;41.90;;
42092;SDS011;28974;50.316;18.960;2022-12-19T17:56:39;127.03;;;42.30;;
42092;SDS011;28974;50.316;18.960;2022-12-19T18:08:40;105.97;;;31.88;;
42092;SDS011;28974;50.316;18.960;2022-12-19T18:20:41;110.82;;;38.88;;
42092;SDS011;28974;50.316;18.960;2022-12-19T18:32:46;132.55;;;47.45;;
42092;SDS011;28974;50.316;18.960;2022-12-19T18:44:47;140.63;;;49.38;;
42092;SDS011;28974;50.316;18.960;2022-12-19T18:56:47;77.53;;;28.23;;
42092;SDS011;28974;50.316;18.960;2022-12-19T19:08:47;102.20;;;37.25;;
42092;SDS011;28974;50.316;18.960;2022-12-19T19:21:24;109.43;;;36.77;;
42092;SDS011;28974;50.316;18.960;2022-12-19T19:33:32;105.25;;;35.03;;
42092;SDS011;28974;50.316;18.960;2022-12-19T19:45:34;130.07;;;42.15;;
42092;SDS011;28974;50.316;18.960;2022-12-19T19:57:35;91.93;;;31.90;;
42092;SDS011;28974;50.316;18.960;2022-12-19T20:09:35;126.22;;;38.03;;
42092;SDS011;28974;50.316;18.960;2022-12-19T20:21:36;111.30;;;38.50;;
42092;SDS011;28974;50.316;18.960;2022-12-19T20:33:36;96.13;;;30.38;;
42092;SDS011;28974;50.316;18.960;2022-12-19T20:45:37;100.43;;;34.42;;
42092;SDS011;28974;50.316;18.960;2022-12-19T20:57:38;68.67;;;24.00;;
42092;SDS011;28974;50.316;18.960;2022-12-19T21:09:38;122.15;;;38.25;;
42092;SDS011;28974;50.316;18.960;2022-12-19T21:21:43;68.97;;;23.05;;
42092;SDS011;28974;50.316;18.960;2022-12-19T21:33:44;81.68;;;24.88;;
42092;SDS011;28974;50.316;18.960;2022-12-19T21:45:44;87.28;;;30.90;;
42092;SDS011;28974;50.316;18.960;2022-12-19T21:57:45;89.50;;;34.60;;
42092;SDS011;28974;50.316;18.960;2022-12-19T22:09:45;93.53;;;32.97;;
42092;SDS011;28974;50.316;18.960;2022-12-19T22:21:45;74.95;;;26.50;;
42092;SDS011;28974;50.316;18.960;2022-12-19T22:33:46;75.13;;;28.08;;
42092;SDS011;28974;50.316;18.960;2022-12-19T22:45:47;93.25;;;30.63;;
42092;SDS011;28974;50.316;18.960;2022-12-19T22:57:47;94.80;;;30.90;;
42092;SDS011;28974;50.316;18.960;2022-12-19T23:09:47;66.30;;;25.75;;
42092;SDS011;28974;50.316;18.960;2022-12-19T23:21:47;84.07;;;28.00;;
42092;SDS011;28974;50.316;18.960;2022-12-19T23:33:48;70.93;;;24.85;;
42092;SDS011;28974;50.316;18.960;2022-12-19T23:45:48;73.70;;;24.90;;
42092;SDS011;28974;50.316;18.960;2022-12-19T23:57:49;55.17;;;18.17;;
